KISO/ISO METAR and TAF weather

Enter ICAO airport designator
Station Type Date Time Source
KISO METAR 2022/01/18 06:55 UTC NOAA

KISO 180655Z AUTO 26004KT 10SM CLR 02/M05 A2995 RMK AO2 T00151052


Station Type Date Time Source
KISO Decoded METAR 2022/01/18 06:55 UTC NOAA

Kinston, Kinston Regional Jetport at Stallings Field, NC, United States (KISO) 35-20N 077-37W
Jan 18, 2022 - 01:55 AM EST / 2022.01.18 0655 UTC
Wind: from the W (260 degrees) at 5 MPH (4 KT):0
Visibility: 10 mile(s):0
Sky conditions: clear
Temperature: 34.7 F (1.5 C)
Windchill: 30 F (-1 C):1
Dew Point: 22.6 F (-5.2 C)
Relative Humidity: 60%
Pressure (altimeter): 29.95 in. Hg (1014 hPa)
ob: KISO 180655Z AUTO 26004KT 10SM CLR 02/M05 A2995 RMK AO2 T00151052
cycle: 7

Station Type Date Time Source
KISO TAF 2022/01/18 06:28 UTC NOAA

TAF KISO 180526Z 1806/1906 28006KT P6SM SKC
FM182300 00000KT P6SM SKC
AMD LTD TO CLD VIS AND WIND

Example: see airport list